sensor_id;sensor_type;location;lat;lon;timestamp;P1;durP1;ratioP1;P2;durP2;ratioP2
6033;SDS011;3045;43.226;27.858;2024-01-15T00:01:51;18.50;;;14.53;;
6033;SDS011;3045;43.226;27.858;2024-01-15T00:04:19;19.03;;;15.47;;
6033;SDS011;3045;43.226;27.858;2024-01-15T00:06:47;22.37;;;15.90;;
6033;SDS011;3045;43.226;27.858;2024-01-15T00:09:14;33.53;;;22.50;;
6033;SDS011;3045;43.226;27.858;2024-01-15T00:11:41;35.77;;;23.70;;
6033;SDS011;3045;43.226;27.858;2024-01-15T00:14:08;53.70;;;26.77;;
6033;SDS011;3045;43.226;27.858;2024-01-15T00:16:35;41.13;;;24.03;;
6033;SDS011;3045;43.226;27.858;2024-01-15T00:19:02;51.20;;;27.53;;
6033;SDS011;3045;43.226;27.858;2024-01-15T00:21:31;40.43;;;23.90;;
6033;SDS011;3045;43.226;27.858;2024-01-15T00:23:58;34.30;;;21.77;;
6033;SDS011;3045;43.226;27.858;2024-01-15T00:26:25;34.87;;;21.90;;
6033;SDS011;3045;43.226;27.858;2024-01-15T00:28:52;36.83;;;21.87;;
6033;SDS011;3045;43.226;27.858;2024-01-15T00:31:19;39.70;;;24.20;;
6033;SDS011;3045;43.226;27.858;2024-01-15T00:33:46;43.33;;;26.20;;
6033;SDS011;3045;43.226;27.858;2024-01-15T00:36:13;37.27;;;23.03;;
6033;SDS011;3045;43.226;27.858;2024-01-15T00:38:43;33.57;;;21.73;;
6033;SDS011;3045;43.226;27.858;2024-01-15T00:41:12;30.87;;;20.50;;
6033;SDS011;3045;43.226;27.858;2024-01-15T00:43:39;32.60;;;20.47;;
6033;SDS011;3045;43.226;27.858;2024-01-15T00:46:06;34.47;;;21.53;;
6033;SDS011;3045;43.226;27.858;2024-01-15T00:48:33;34.63;;;18.17;;
6033;SDS011;3045;43.226;27.858;2024-01-15T00:51:01;25.37;;;16.70;;
6033;SDS011;3045;43.226;27.858;2024-01-15T00:53:28;32.53;;;18.63;;
6033;SDS011;3045;43.226;27.858;2024-01-15T00:55:56;27.47;;;17.47;;
6033;SDS011;3045;43.226;27.858;2024-01-15T00:58:23;24.03;;;17.13;;
6033;SDS011;3045;43.226;27.858;2024-01-15T01:00:50;24.10;;;16.13;;
6033;SDS011;3045;43.226;27.858;2024-01-15T01:03:17;16.17;;;12.63;;
6033;SDS011;3045;43.226;27.858;2024-01-15T01:05:45;13.80;;;11.73;;
6033;SDS011;3045;43.226;27.858;2024-01-15T01:08:12;14.73;;;11.90;;
6033;SDS011;3045;43.226;27.858;2024-01-15T01:10:39;18.97;;;10.63;;
6033;SDS011;3045;43.226;27.858;2024-01-15T01:13:09;11.10;;;10.13;;
6033;SDS011;3045;43.226;27.858;2024-01-15T01:15:36;11.57;;;10.47;;
6033;SDS011;3045;43.226;27.858;2024-01-15T01:18:04;11.30;;;10.30;;
6033;SDS011;3045;43.226;27.858;2024-01-15T01:20:31;10.00;;;9.07;;
6033;SDS011;3045;43.226;27.858;2024-01-15T01:22:58;9.27;;;8.57;;
6033;SDS011;3045;43.226;27.858;2024-01-15T01:25:25;12.80;;;10.03;;
6033;SDS011;3045;43.226;27.858;2024-01-15T01:27:52;10.67;;;9.37;;
6033;SDS011;3045;43.226;27.858;2024-01-15T01:30:21;9.30;;;8.37;;
6033;SDS011;3045;43.226;27.858;2024-01-15T01:32:48;9.17;;;8.60;;
6033;SDS011;3045;43.226;27.858;2024-01-15T01:35:15;9.67;;;9.03;;
6033;SDS011;3045;43.226;27.858;2024-01-15T01:37:42;9.20;;;7.23;;
6033;SDS011;3045;43.226;27.858;2024-01-15T01:40:09;7.77;;;7.20;;
6033;SDS011;3045;43.226;27.858;2024-01-15T01:42:36;9.83;;;9.23;;
6033;SDS011;3045;43.226;27.858;2024-01-15T01:45:04;7.77;;;7.17;;
6033;SDS011;3045;43.226;27.858;2024-01-15T01:47:33;8.47;;;7.77;;
6033;SDS011;3045;43.226;27.858;2024-01-15T01:50:01;8.87;;;7.97;;
6033;SDS011;3045;43.226;27.858;2024-01-15T01:52:29;10.67;;;9.60;;
6033;SDS011;3045;43.226;27.858;2024-01-15T01:54:57;17.87;;;12.93;;
6033;SDS011;3045;43.226;27.858;2024-01-15T01:57:26;25.27;;;17.47;;
6033;SDS011;3045;43.226;27.858;2024-01-15T01:59:53;31.17;;;18.13;;
6033;SDS011;3045;43.226;27.858;2024-01-15T02:02:21;30.03;;;19.07;;
6033;SDS011;3045;43.226;27.858;2024-01-15T02:04:50;25.40;;;17.97;;
6033;SDS011;3045;43.226;27.858;2024-01-15T02:07:17;27.47;;;20.27;;
6033;SDS011;3045;43.226;27.858;2024-01-15T02:09:44;32.20;;;20.63;;
6033;SDS011;3045;43.226;27.858;2024-01-15T02:12:11;35.73;;;22.70;;
6033;SDS011;3045;43.226;27.858;2024-01-15T02:14:39;33.57;;;22.13;;
6033;SDS011;3045;43.226;27.858;2024-01-15T02:17:06;35.17;;;21.83;;
6033;SDS011;3045;43.226;27.858;2024-01-15T02:19:33;29.53;;;19.60;;
6033;SDS011;3045;43.226;27.858;2024-01-15T02:22:01;28.50;;;20.50;;
6033;SDS011;3045;43.226;27.858;2024-01-15T02:24:30;33.37;;;22.13;;
6033;SDS011;3045;43.226;27.858;2024-01-15T02:26:57;30.10;;;20.90;;
6033;SDS011;3045;43.226;27.858;2024-01-15T02:29:24;36.67;;;20.03;;
6033;SDS011;3045;43.226;27.858;2024-01-15T02:31:52;22.10;;;16.73;;
6033;SDS011;3045;43.226;27.858;2024-01-15T02:34:19;20.97;;;16.60;;
6033;SDS011;3045;43.226;27.858;2024-01-15T02:36:46;22.13;;;15.77;;
6033;SDS011;3045;43.226;27.858;2024-01-15T02:39:13;24.17;;;16.43;;
6033;SDS011;3045;43.226;27.858;2024-01-15T02:41:42;21.23;;;15.63;;
6033;SDS011;3045;43.226;27.858;2024-01-15T02:44:09;19.80;;;14.93;;
6033;SDS011;3045;43.226;27.858;2024-01-15T02:46:36;18.80;;;15.57;;
6033;SDS011;3045;43.226;27.858;2024-01-15T02:49:03;27.87;;;19.70;;
6033;SDS011;3045;43.226;27.858;2024-01-15T02:51:30;13.33;;;11.93;;
6033;SDS011;3045;43.226;27.858;2024-01-15T02:53:57;15.37;;;12.30;;
6033;SDS011;3045;43.226;27.858;2024-01-15T02:56:24;11.20;;;10.20;;
6033;SDS011;3045;43.226;27.858;2024-01-15T02:58:53;23.03;;;15.63;;
6033;SDS011;3045;43.226;27.858;2024-01-15T03:01:20;31.67;;;21.50;;
6033;SDS011;3045;43.226;27.858;2024-01-15T03:03:47;41.13;;;23.13;;
6033;SDS011;3045;43.226;27.858;2024-01-15T03:06:14;32.07;;;20.50;;
6033;SDS011;3045;43.226;27.858;2024-01-15T03:08:41;28.70;;;21.03;;
6033;SDS011;3045;43.226;27.858;2024-01-15T03:11:08;37.33;;;21.60;;
6033;SDS011;3045;43.226;27.858;2024-01-15T03:13:35;38.70;;;21.60;;
6033;SDS011;3045;43.226;27.858;2024-01-15T03:16:05;31.50;;;21.27;;
6033;SDS011;3045;43.226;27.858;2024-01-15T03:18:32;42.63;;;22.37;;
6033;SDS011;3045;43.226;27.858;2024-01-15T03:20:59;27.33;;;19.80;;
6033;SDS011;3045;43.226;27.858;2024-01-15T03:23:27;36.57;;;20.53;;
6033;SDS011;3045;43.226;27.858;2024-01-15T03:25:54;34.93;;;22.57;;
6033;SDS011;3045;43.226;27.858;2024-01-15T03:28:21;40.17;;;22.43;;
6033;SDS011;3045;43.226;27.858;2024-01-15T03:30:48;34.40;;;21.17;;
6033;SDS011;3045;43.226;27.858;2024-01-15T03:33:17;29.67;;;19.30;;
6033;SDS011;3045;43.226;27.858;2024-01-15T03:35:44;34.53;;;21.07;;
6033;SDS011;3045;43.226;27.858;2024-01-15T03:38:11;31.73;;;19.10;;
6033;SDS011;3045;43.226;27.858;2024-01-15T03:40:38;37.20;;;17.10;;
6033;SDS011;3045;43.226;27.858;2024-01-15T03:43:05;23.17;;;17.90;;
6033;SDS011;3045;43.226;27.858;2024-01-15T03:45:32;20.47;;;16.40;;
6033;SDS011;3045;43.226;27.858;2024-01-15T03:47:59;26.93;;;17.13;;
6033;SDS011;3045;43.226;27.858;2024-01-15T03:50:28;21.67;;;15.83;;
6033;SDS011;3045;43.226;27.858;2024-01-15T03:52:55;20.40;;;14.73;;
6033;SDS011;3045;43.226;27.858;2024-01-15T03:55:22;24.83;;;15.43;;
6033;SDS011;3045;43.226;27.858;2024-01-15T03:57:49;19.63;;;15.27;;
6033;SDS011;3045;43.226;27.858;2024-01-15T04:00:16;17.83;;;13.83;;
6033;SDS011;3045;43.226;27.858;2024-01-15T04:02:43;19.27;;;14.03;;
6033;SDS011;3045;43.226;27.858;2024-01-15T04:05:10;19.40;;;13.70;;
6033;SDS011;3045;43.226;27.858;2024-01-15T04:07:39;21.60;;;14.03;;
6033;SDS011;3045;43.226;27.858;2024-01-15T04:10:06;18.47;;;11.00;;
6033;SDS011;3045;43.226;27.858;2024-01-15T04:12:34;16.10;;;11.50;;
6033;SDS011;3045;43.226;27.858;2024-01-15T04:15:01;14.40;;;11.37;;
6033;SDS011;3045;43.226;27.858;2024-01-15T04:17:28;15.47;;;11.13;;
6033;SDS011;3045;43.226;27.858;2024-01-15T04:19:55;18.10;;;10.90;;
6033;SDS011;3045;43.226;27.858;2024-01-15T04:22:22;12.47;;;11.27;;
6033;SDS011;3045;43.226;27.858;2024-01-15T04:24:51;13.47;;;10.80;;
6033;SDS011;3045;43.226;27.858;2024-01-15T04:27:18;14.07;;;11.63;;
6033;SDS011;3045;43.226;27.858;2024-01-15T04:29:45;16.03;;;10.80;;
6033;SDS011;3045;43.226;27.858;2024-01-15T04:32:12;19.10;;;11.40;;
6033;SDS011;3045;43.226;27.858;2024-01-15T04:34:39;27.63;;;11.67;;
6033;SDS011;3045;43.226;27.858;2024-01-15T04:37:06;33.33;;;10.60;;
6033;SDS011;3045;43.226;27.858;2024-01-15T04:39:33;20.10;;;10.70;;
6033;SDS011;3045;43.226;27.858;2024-01-15T04:42:02;10.67;;;9.83;;
6033;SDS011;3045;43.226;27.858;2024-01-15T04:44:29;11.57;;;10.57;;
6033;SDS011;3045;43.226;27.858;2024-01-15T04:46:56;15.70;;;11.07;;
6033;SDS011;3045;43.226;27.858;2024-01-15T04:49:23;15.23;;;12.97;;
6033;SDS011;3045;43.226;27.858;2024-01-15T04:51:51;27.50;;;14.43;;
6033;SDS011;3045;43.226;27.858;2024-01-15T04:54:18;18.33;;;13.63;;
6033;SDS011;3045;43.226;27.858;2024-01-15T04:56:45;20.10;;;13.20;;
6033;SDS011;3045;43.226;27.858;2024-01-15T04:59:14;17.13;;;13.20;;
6033;SDS011;3045;43.226;27.858;2024-01-15T05:01:41;35.03;;;14.93;;
6033;SDS011;3045;43.226;27.858;2024-01-15T05:04:08;25.00;;;15.17;;
6033;SDS011;3045;43.226;27.858;2024-01-15T05:06:35;18.27;;;14.50;;
6033;SDS011;3045;43.226;27.858;2024-01-15T05:09:02;35.63;;;15.97;;
6033;SDS011;3045;43.226;27.858;2024-01-15T05:11:30;31.97;;;15.60;;
6033;SDS011;3045;43.226;27.858;2024-01-15T05:13:57;25.77;;;16.33;;
6033;SDS011;3045;43.226;27.858;2024-01-15T05:16:25;28.97;;;15.03;;
6033;SDS011;3045;43.226;27.858;2024-01-15T05:18:52;18.40;;;14.70;;
6033;SDS011;3045;43.226;27.858;2024-01-15T05:21:19;49.90;;;17.47;;
6033;SDS011;3045;43.226;27.858;2024-01-15T05:23:46;22.00;;;15.97;;
6033;SDS011;3045;43.226;27.858;2024-01-15T05:26:13;26.70;;;16.33;;
6033;SDS011;3045;43.226;27.858;2024-01-15T05:28:40;19.43;;;15.10;;
6033;SDS011;3045;43.226;27.858;2024-01-15T05:31:08;37.43;;;17.23;;
6033;SDS011;3045;43.226;27.858;2024-01-15T05:33:37;26.30;;;15.47;;
6033;SDS011;3045;43.226;27.858;2024-01-15T05:36:05;24.47;;;17.13;;
6033;SDS011;3045;43.226;27.858;2024-01-15T05:38:33;29.87;;;17.53;;
6033;SDS011;3045;43.226;27.858;2024-01-15T05:41:00;33.07;;;19.70;;
6033;SDS011;3045;43.226;27.858;2024-01-15T05:43:27;28.43;;;16.80;;
6033;SDS011;3045;43.226;27.858;2024-01-15T05:45:53;29.73;;;18.53;;
6033;SDS011;3045;43.226;27.858;2024-01-15T05:48:20;41.07;;;19.20;;
6033;SDS011;3045;43.226;27.858;2024-01-15T05:50:48;37.60;;;17.57;;
6033;SDS011;3045;43.226;27.858;2024-01-15T05:53:15;56.70;;;24.03;;
6033;SDS011;3045;43.226;27.858;2024-01-15T05:55:42;65.70;;;28.93;;
6033;SDS011;3045;43.226;27.858;2024-01-15T05:58:10;58.50;;;27.57;;
6033;SDS011;3045;43.226;27.858;2024-01-15T06:00:37;63.80;;;25.90;;
6033;SDS011;3045;43.226;27.858;2024-01-15T06:03:04;56.50;;;27.20;;
6033;SDS011;3045;43.226;27.858;2024-01-15T06:05:31;71.03;;;28.47;;
6033;SDS011;3045;43.226;27.858;2024-01-15T06:08:00;66.53;;;30.23;;
6033;SDS011;3045;43.226;27.858;2024-01-15T06:10:27;49.67;;;25.77;;
6033;SDS011;3045;43.226;27.858;2024-01-15T06:12:54;50.57;;;26.23;;
6033;SDS011;3045;43.226;27.858;2024-01-15T06:15:21;63.37;;;28.07;;
6033;SDS011;3045;43.226;27.858;2024-01-15T06:17:48;69.67;;;31.63;;
6033;SDS011;3045;43.226;27.858;2024-01-15T06:20:15;73.10;;;34.30;;
6033;SDS011;3045;43.226;27.858;2024-01-15T06:22:43;68.97;;;34.50;;
6033;SDS011;3045;43.226;27.858;2024-01-15T06:25:11;71.07;;;31.30;;
6033;SDS011;3045;43.226;27.858;2024-01-15T06:27:38;73.33;;;32.63;;
6033;SDS011;3045;43.226;27.858;2024-01-15T06:30:06;67.13;;;31.57;;
6033;SDS011;3045;43.226;27.858;2024-01-15T06:32:33;65.40;;;30.03;;
6033;SDS011;3045;43.226;27.858;2024-01-15T06:35:00;60.60;;;29.17;;
6033;SDS011;3045;43.226;27.858;2024-01-15T06:37:27;97.40;;;42.80;;
6033;SDS011;3045;43.226;27.858;2024-01-15T06:39:55;48.90;;;27.23;;
6033;SDS011;3045;43.226;27.858;2024-01-15T06:42:24;61.50;;;27.60;;
6033;SDS011;3045;43.226;27.858;2024-01-15T06:44:51;72.80;;;30.37;;
6033;SDS011;3045;43.226;27.858;2024-01-15T06:47:18;55.97;;;28.07;;
6033;SDS011;3045;43.226;27.858;2024-01-15T06:49:45;62.47;;;28.63;;
6033;SDS011;3045;43.226;27.858;2024-01-15T06:52:12;85.93;;;29.73;;
6033;SDS011;3045;43.226;27.858;2024-01-15T06:54:39;75.57;;;29.77;;
6033;SDS011;3045;43.226;27.858;2024-01-15T06:57:06;67.90;;;28.63;;
6033;SDS011;3045;43.226;27.858;2024-01-15T06:59:35;58.20;;;33.53;;
6033;SDS011;3045;43.226;27.858;2024-01-15T07:02:02;58.30;;;28.27;;
6033;SDS011;3045;43.226;27.858;2024-01-15T07:04:29;65.23;;;31.43;;
6033;SDS011;3045;43.226;27.858;2024-01-15T07:06:56;73.60;;;35.87;;
6033;SDS011;3045;43.226;27.858;2024-01-15T07:09:23;84.27;;;36.90;;
6033;SDS011;3045;43.226;27.858;2024-01-15T07:11:50;62.93;;;28.93;;
6033;SDS011;3045;43.226;27.858;2024-01-15T07:14:17;55.87;;;27.40;;
6033;SDS011;3045;43.226;27.858;2024-01-15T07:16:46;42.13;;;23.10;;
6033;SDS011;3045;43.226;27.858;2024-01-15T07:19:13;61.87;;;28.40;;
6033;SDS011;3045;43.226;27.858;2024-01-15T07:21:40;56.13;;;26.70;;
6033;SDS011;3045;43.226;27.858;2024-01-15T07:24:08;64.57;;;28.60;;
6033;SDS011;3045;43.226;27.858;2024-01-15T07:26:35;43.47;;;23.33;;
6033;SDS011;3045;43.226;27.858;2024-01-15T07:29:02;44.27;;;21.60;;
6033;SDS011;3045;43.226;27.858;2024-01-15T07:31:29;34.07;;;21.40;;
6033;SDS011;3045;43.226;27.858;2024-01-15T07:33:59;60.50;;;23.03;;
6033;SDS011;3045;43.226;27.858;2024-01-15T07:36:26;58.17;;;23.57;;
6033;SDS011;3045;43.226;27.858;2024-01-15T07:38:53;65.60;;;26.07;;
6033;SDS011;3045;43.226;27.858;2024-01-15T07:41:20;67.07;;;30.50;;
6033;SDS011;3045;43.226;27.858;2024-01-15T07:43:48;60.70;;;31.67;;
6033;SDS011;3045;43.226;27.858;2024-01-15T07:46:15;86.63;;;35.77;;
6033;SDS011;3045;43.226;27.858;2024-01-15T07:48:42;82.80;;;38.03;;
6033;SDS011;3045;43.226;27.858;2024-01-15T07:51:11;88.03;;;40.47;;
6033;SDS011;3045;43.226;27.858;2024-01-15T07:53:38;100.70;;;41.13;;
6033;SDS011;3045;43.226;27.858;2024-01-15T07:56:05;82.67;;;39.07;;
6033;SDS011;3045;43.226;27.858;2024-01-15T07:58:32;98.83;;;39.30;;
6033;SDS011;3045;43.226;27.858;2024-01-15T08:00:59;85.23;;;38.87;;
6033;SDS011;3045;43.226;27.858;2024-01-15T08:03:26;105.60;;;39.60;;
6033;SDS011;3045;43.226;27.858;2024-01-15T08:05:53;97.37;;;41.23;;
6033;SDS011;3045;43.226;27.858;2024-01-15T08:08:24;83.27;;;39.20;;
6033;SDS011;3045;43.226;27.858;2024-01-15T08:10:52;73.60;;;36.67;;
6033;SDS011;3045;43.226;27.858;2024-01-15T08:13:19;62.57;;;36.67;;
6033;SDS011;3045;43.226;27.858;2024-01-15T08:15:46;82.73;;;36.13;;
6033;SDS011;3045;43.226;27.858;2024-01-15T08:18:13;58.60;;;33.40;;
6033;SDS011;3045;43.226;27.858;2024-01-15T08:20:40;45.80;;;29.63;;
6033;SDS011;3045;43.226;27.858;2024-01-15T08:23:07;90.63;;;34.93;;
6033;SDS011;3045;43.226;27.858;2024-01-15T08:25:36;69.93;;;32.07;;
6033;SDS011;3045;43.226;27.858;2024-01-15T08:28:03;55.00;;;30.17;;
6033;SDS011;3045;43.226;27.858;2024-01-15T08:30:31;62.93;;;27.23;;
6033;SDS011;3045;43.226;27.858;2024-01-15T08:32:58;49.73;;;27.77;;
6033;SDS011;3045;43.226;27.858;2024-01-15T08:35:25;60.33;;;23.47;;
6033;SDS011;3045;43.226;27.858;2024-01-15T08:37:52;50.53;;;24.50;;
6033;SDS011;3045;43.226;27.858;2024-01-15T08:40:19;54.90;;;26.37;;
6033;SDS011;3045;43.226;27.858;2024-01-15T08:42:48;58.83;;;21.87;;
6033;SDS011;3045;43.226;27.858;2024-01-15T08:45:15;56.60;;;21.33;;
6033;SDS011;3045;43.226;27.858;2024-01-15T08:47:42;151.23;;;84.60;;
6033;SDS011;3045;43.226;27.858;2024-01-15T08:50:09;96.83;;;47.93;;
6033;SDS011;3045;43.226;27.858;2024-01-15T08:52:36;99.43;;;48.50;;
6033;SDS011;3045;43.226;27.858;2024-01-15T08:55:04;93.53;;;41.47;;
6033;SDS011;3045;43.226;27.858;2024-01-15T08:57:32;47.87;;;31.97;;
6033;SDS011;3045;43.226;27.858;2024-01-15T09:00:01;84.53;;;31.80;;
6033;SDS011;3045;43.226;27.858;2024-01-15T09:02:28;45.57;;;26.57;;
6033;SDS011;3045;43.226;27.858;2024-01-15T09:04:56;58.57;;;27.53;;
6033;SDS011;3045;43.226;27.858;2024-01-15T09:07:31;56.70;;;27.60;;
6033;SDS011;3045;43.226;27.858;2024-01-15T09:09:58;50.07;;;24.47;;
6033;SDS011;3045;43.226;27.858;2024-01-15T09:12:27;42.67;;;25.50;;
6033;SDS011;3045;43.226;27.858;2024-01-15T09:14:54;63.22;;;25.92;;
6033;SDS011;3045;43.226;27.858;2024-01-15T09:17:23;48.10;;;24.15;;
6033;SDS011;3045;43.226;27.858;2024-01-15T09:19:50;44.35;;;20.27;;
6033;SDS011;3045;43.226;27.858;2024-01-15T09:22:17;23.17;;;15.70;;
6033;SDS011;3045;43.226;27.858;2024-01-15T09:24:44;19.05;;;16.17;;
6033;SDS011;3045;43.226;27.858;2024-01-15T09:27:11;18.95;;;14.63;;
6033;SDS011;3045;43.226;27.858;2024-01-15T09:29:39;19.55;;;13.63;;
6033;SDS011;3045;43.226;27.858;2024-01-15T09:32:07;17.17;;;14.23;;
6033;SDS011;3045;43.226;27.858;2024-01-15T09:34:35;56.08;;;19.38;;
6033;SDS011;3045;43.226;27.858;2024-01-15T09:37:03;33.33;;;15.23;;
6033;SDS011;3045;43.226;27.858;2024-01-15T09:39:30;19.60;;;14.20;;
6033;SDS011;3045;43.226;27.858;2024-01-15T09:41:57;25.95;;;15.45;;
6033;SDS011;3045;43.226;27.858;2024-01-15T09:44:24;28.77;;;15.40;;
6033;SDS011;3045;43.226;27.858;2024-01-15T09:46:53;19.30;;;12.55;;
6033;SDS011;3045;43.226;27.858;2024-01-15T09:49:22;11.70;;;10.75;;
6033;SDS011;3045;43.226;27.858;2024-01-15T09:51:51;13.27;;;11.38;;
6033;SDS011;3045;43.226;27.858;2024-01-15T09:54:18;31.63;;;12.95;;
6033;SDS011;3045;43.226;27.858;2024-01-15T09:56:46;10.73;;;10.05;;
6033;SDS011;3045;43.226;27.858;2024-01-15T09:59:14;17.75;;;11.18;;
6033;SDS011;3045;43.226;27.858;2024-01-15T10:01:43;31.70;;;13.38;;
6033;SDS011;3045;43.226;27.858;2024-01-15T10:04:10;13.75;;;11.45;;
6033;SDS011;3045;43.226;27.858;2024-01-15T10:06:37;13.05;;;12.05;;
6033;SDS011;3045;43.226;27.858;2024-01-15T10:09:12;14.02;;;11.80;;
6033;SDS011;3045;43.226;27.858;2024-01-15T10:11:40;17.38;;;10.88;;
6033;SDS011;3045;43.226;27.858;2024-01-15T10:14:08;12.32;;;11.15;;
6033;SDS011;3045;43.226;27.858;2024-01-15T10:16:37;10.98;;;10.07;;
6033;SDS011;3045;43.226;27.858;2024-01-15T10:19:04;12.25;;;10.95;;
6033;SDS011;3045;43.226;27.858;2024-01-15T10:21:32;94.18;;;58.03;;
6033;SDS011;3045;43.226;27.858;2024-01-15T10:24:00;266.90;;;191.32;;
6033;SDS011;3045;43.226;27.858;2024-01-15T10:26:29;16.10;;;13.00;;
6033;SDS011;3045;43.226;27.858;2024-01-15T10:28:58;13.48;;;11.20;;
6033;SDS011;3045;43.226;27.858;2024-01-15T10:31:25;15.98;;;14.52;;
6033;SDS011;3045;43.226;27.858;2024-01-15T10:33:53;19.08;;;13.95;;
6033;SDS011;3045;43.226;27.858;2024-01-15T10:36:20;10.60;;;9.90;;
6033;SDS011;3045;43.226;27.858;2024-01-15T10:38:47;11.75;;;10.40;;
6033;SDS011;3045;43.226;27.858;2024-01-15T10:41:14;11.43;;;10.53;;
6033;SDS011;3045;43.226;27.858;2024-01-15T10:43:43;13.43;;;12.03;;
6033;SDS011;3045;43.226;27.858;2024-01-15T10:46:10;20.07;;;11.70;;
6033;SDS011;3045;43.226;27.858;2024-01-15T10:48:38;13.13;;;10.70;;
6033;SDS011;3045;43.226;27.858;2024-01-15T10:51:07;28.93;;;11.53;;
6033;SDS011;3045;43.226;27.858;2024-01-15T10:53:39;12.53;;;10.23;;
6033;SDS011;3045;43.226;27.858;2024-01-15T10:56:07;14.77;;;10.70;;
6033;SDS011;3045;43.226;27.858;2024-01-15T10:58:36;18.47;;;11.80;;
6033;SDS011;3045;43.226;27.858;2024-01-15T11:01:07;14.17;;;11.07;;
6033;SDS011;3045;43.226;27.858;2024-01-15T11:03:35;11.37;;;10.30;;
6033;SDS011;3045;43.226;27.858;2024-01-15T11:06:02;11.93;;;10.53;;
6033;SDS011;3045;43.226;27.858;2024-01-15T11:08:32;11.37;;;10.47;;
6033;SDS011;3045;43.226;27.858;2024-01-15T11:11:02;13.40;;;9.47;;
6033;SDS011;3045;43.226;27.858;2024-01-15T11:13:40;11.53;;;10.43;;
6033;SDS011;3045;43.226;27.858;2024-01-15T11:16:11;10.97;;;9.80;;
6033;SDS011;3045;43.226;27.858;2024-01-15T11:18:39;18.83;;;10.93;;
6033;SDS011;3045;43.226;27.858;2024-01-15T11:21:20;15.47;;;10.40;;
6033;SDS011;3045;43.226;27.858;2024-01-15T11:23:49;10.93;;;9.90;;
6033;SDS011;3045;43.226;27.858;2024-01-15T11:26:30;19.87;;;10.17;;
6033;SDS011;3045;43.226;27.858;2024-01-15T11:28:59;11.50;;;9.00;;
6033;SDS011;3045;43.226;27.858;2024-01-15T11:34:55;8.17;;;7.43;;
6033;SDS011;3045;43.226;27.858;2024-01-15T11:37:27;9.20;;;8.50;;
6033;SDS011;3045;43.226;27.858;2024-01-15T11:39:55;10.57;;;9.77;;
6033;SDS011;3045;43.226;27.858;2024-01-15T11:42:28;8.03;;;7.60;;
6033;SDS011;3045;43.226;27.858;2024-01-15T11:44:56;8.87;;;8.00;;
6033;SDS011;3045;43.226;27.858;2024-01-15T11:50:32;17.50;;;9.23;;
6033;SDS011;3045;43.226;27.858;2024-01-15T11:53:01;10.03;;;9.13;;
6033;SDS011;3045;43.226;27.858;2024-01-15T11:55:30;12.67;;;8.83;;
6033;SDS011;3045;43.226;27.858;2024-01-15T11:58:01;11.97;;;8.07;;
6033;SDS011;3045;43.226;27.858;2024-01-15T12:00:29;8.17;;;7.70;;
6033;SDS011;3045;43.226;27.858;2024-01-15T12:02:58;8.80;;;8.30;;
6033;SDS011;3045;43.226;27.858;2024-01-15T12:05:27;9.07;;;8.00;;
6033;SDS011;3045;43.226;27.858;2024-01-15T12:07:55;13.20;;;8.63;;
6033;SDS011;3045;43.226;27.858;2024-01-15T12:10:23;9.02;;;8.20;;
6033;SDS011;3045;43.226;27.858;2024-01-15T12:12:56;8.20;;;7.60;;
6033;SDS011;3045;43.226;27.858;2024-01-15T12:15:25;10.40;;;9.37;;
6033;SDS011;3045;43.226;27.858;2024-01-15T12:17:54;8.40;;;7.80;;
6033;SDS011;3045;43.226;27.858;2024-01-15T12:20:24;10.13;;;9.40;;
6033;SDS011;3045;43.226;27.858;2024-01-15T12:22:52;8.73;;;8.03;;
6033;SDS011;3045;43.226;27.858;2024-01-15T12:25:20;9.73;;;8.63;;
6033;SDS011;3045;43.226;27.858;2024-01-15T12:27:47;8.87;;;8.13;;
6033;SDS011;3045;43.226;27.858;2024-01-15T12:30:15;13.17;;;8.23;;
6033;SDS011;3045;43.226;27.858;2024-01-15T12:32:42;8.40;;;7.80;;
6033;SDS011;3045;43.226;27.858;2024-01-15T12:35:10;8.63;;;7.90;;
6033;SDS011;3045;43.226;27.858;2024-01-15T12:37:48;11.67;;;8.47;;
6033;SDS011;3045;43.226;27.858;2024-01-15T12:40:18;10.97;;;8.03;;
6033;SDS011;3045;43.226;27.858;2024-01-15T12:42:46;8.50;;;7.50;;
6033;SDS011;3045;43.226;27.858;2024-01-15T12:45:13;8.30;;;7.80;;
6033;SDS011;3045;43.226;27.858;2024-01-15T12:47:40;15.03;;;7.77;;
6033;SDS011;3045;43.226;27.858;2024-01-15T12:50:08;8.80;;;8.20;;
6033;SDS011;3045;43.226;27.858;2024-01-15T12:52:36;7.87;;;7.07;;
6033;SDS011;3045;43.226;27.858;2024-01-15T12:55:06;10.27;;;8.23;;
6033;SDS011;3045;43.226;27.858;2024-01-15T12:57:34;8.47;;;7.80;;
6033;SDS011;3045;43.226;27.858;2024-01-15T13:00:02;13.87;;;7.63;;
6033;SDS011;3045;43.226;27.858;2024-01-15T13:02:32;8.90;;;8.07;;
6033;SDS011;3045;43.226;27.858;2024-01-15T13:04:59;9.73;;;8.80;;
6033;SDS011;3045;43.226;27.858;2024-01-15T13:07:29;8.33;;;7.53;;
6033;SDS011;3045;43.226;27.858;2024-01-15T13:09:56;8.33;;;7.93;;
6033;SDS011;3045;43.226;27.858;2024-01-15T13:12:24;8.60;;;7.87;;
6033;SDS011;3045;43.226;27.858;2024-01-15T13:14:52;12.07;;;8.50;;
6033;SDS011;3045;43.226;27.858;2024-01-15T13:17:19;7.90;;;7.43;;
6033;SDS011;3045;43.226;27.858;2024-01-15T13:19:46;8.50;;;7.67;;
6033;SDS011;3045;43.226;27.858;2024-01-15T13:22:13;8.23;;;7.57;;
6033;SDS011;3045;43.226;27.858;2024-01-15T13:24:41;9.10;;;8.20;;
6033;SDS011;3045;43.226;27.858;2024-01-15T13:27:08;19.07;;;9.63;;
6033;SDS011;3045;43.226;27.858;2024-01-15T13:29:37;13.70;;;8.77;;
6033;SDS011;3045;43.226;27.858;2024-01-15T13:32:04;9.83;;;8.93;;
6033;SDS011;3045;43.226;27.858;2024-01-15T13:34:31;13.50;;;8.77;;
6033;SDS011;3045;43.226;27.858;2024-01-15T13:36:59;11.97;;;9.17;;
6033;SDS011;3045;43.226;27.858;2024-01-15T13:39:27;8.80;;;8.00;;
6033;SDS011;3045;43.226;27.858;2024-01-15T13:41:58;10.80;;;10.00;;
6033;SDS011;3045;43.226;27.858;2024-01-15T13:44:25;9.43;;;8.53;;
6033;SDS011;3045;43.226;27.858;2024-01-15T13:46:54;10.17;;;9.17;;
6033;SDS011;3045;43.226;27.858;2024-01-15T13:49:22;8.17;;;7.67;;
6033;SDS011;3045;43.226;27.858;2024-01-15T13:51:50;9.50;;;8.60;;
6033;SDS011;3045;43.226;27.858;2024-01-15T13:54:17;8.53;;;7.53;;
6033;SDS011;3045;43.226;27.858;2024-01-15T13:56:47;10.63;;;8.37;;
6033;SDS011;3045;43.226;27.858;2024-01-15T13:59:15;12.97;;;8.17;;
6033;SDS011;3045;43.226;27.858;2024-01-15T14:01:42;10.53;;;7.67;;
6033;SDS011;3045;43.226;27.858;2024-01-15T14:04:10;9.87;;;8.50;;
6033;SDS011;3045;43.226;27.858;2024-01-15T14:06:37;13.30;;;8.47;;
6033;SDS011;3045;43.226;27.858;2024-01-15T14:09:05;9.20;;;8.30;;
6033;SDS011;3045;43.226;27.858;2024-01-15T14:11:35;11.03;;;7.70;;
6033;SDS011;3045;43.226;27.858;2024-01-15T14:14:02;10.27;;;8.10;;
6033;SDS011;3045;43.226;27.858;2024-01-15T14:16:29;8.70;;;8.00;;
6033;SDS011;3045;43.226;27.858;2024-01-15T14:18:56;9.23;;;8.27;;
6033;SDS011;3045;43.226;27.858;2024-01-15T14:21:25;13.33;;;9.10;;
6033;SDS011;3045;43.226;27.858;2024-01-15T14:23:52;14.40;;;9.27;;
6033;SDS011;3045;43.226;27.858;2024-01-15T14:26:19;8.80;;;7.97;;
6033;SDS011;3045;43.226;27.858;2024-01-15T14:28:46;8.03;;;7.63;;
6033;SDS011;3045;43.226;27.858;2024-01-15T14:31:14;10.10;;;8.07;;
6033;SDS011;3045;43.226;27.858;2024-01-15T14:33:41;9.13;;;8.27;;
6033;SDS011;3045;43.226;27.858;2024-01-15T14:36:08;9.07;;;8.37;;
6033;SDS011;3045;43.226;27.858;2024-01-15T14:38:36;7.33;;;6.93;;
6033;SDS011;3045;43.226;27.858;2024-01-15T14:41:04;8.63;;;8.13;;
6033;SDS011;3045;43.226;27.858;2024-01-15T14:43:31;15.30;;;9.10;;
6033;SDS011;3045;43.226;27.858;2024-01-15T14:45:58;11.37;;;7.33;;
6033;SDS011;3045;43.226;27.858;2024-01-15T14:48:25;7.40;;;6.93;;
6033;SDS011;3045;43.226;27.858;2024-01-15T14:50:52;12.87;;;8.17;;